Time;durP1;ratioP1;P1;durP2;ratioP2;P2;SDS_P1;SDS_P2;PMS_P1;PMS_P2;Temp;Humidity;BMP_temperature;BMP_pressure;BME280_temperature;BME280_humidity;BME280_pressure;Samples;Min_cycle;Max_cycle;Signal;HPM_P1;HPM_P2
2019/10/28 00:00:55;;;;;;;16.6;13.15;;;;;;;14.19;100;95520.45;;;;
2019/10/28 00:01:57;;;;;;;16.6;13.15;;;;;;;14.19;100;95520.45;;;;
2019/10/28 00:02:58;;;;;;;16.6;13.15;;;;;;;14.19;100;95520.45;;;;
2019/10/28 00:04:00;;;;;;;17.95;14;;;;;;;13.81;98.73145;95514.62;;;;
2019/10/28 00:05:01;;;;;;;17.95;14;;;;;;;13.81;98.73145;95514.62;;;;
2019/10/28 00:06:02;;;;;;;17;13.65;;;;;;;13.78;99.89355;95513.64;;;;
2019/10/28 00:07:03;;;;;;;17;13.65;;;;;;;13.78;99.89355;95513.64;;;;
2019/10/28 00:08:04;;;;;;;17;13.65;;;;;;;13.78;99.89355;95513.64;;;;
2019/10/28 00:09:05;;;;;;;19.9;14.65;;;;;;;13.82;100;95518.02;;;;
2019/10/28 00:10:07;;;;;;;19.9;14.65;;;;;;;13.82;100;95518.02;;;;
2019/10/28 00:11:08;;;;;;;17.15;14.6;;;;;;;13.84;100;95511.28;;;;
2019/10/28 00:12:09;;;;;;;17.15;14.6;;;;;;;13.84;100;95511.28;;;;
2019/10/28 00:13:10;;;;;;;17.15;14.6;;;;;;;13.84;100;95511.28;;;;
2019/10/28 00:14:12;;;;;;;16.4;14.55;;;;;;;13.86;100;95510.1;;;;
2019/10/28 00:15:13;;;;;;;16.4;14.55;;;;;;;13.86;100;95510.1;;;;
2019/10/28 00:16:14;;;;;;;16.4;14.55;;;;;;;13.86;100;95510.1;;;;
2019/10/28 00:17:15;;;;;;;19.75;14.75;;;;;;;13.88;100;95509.83;;;;
2019/10/28 00:18:16;;;;;;;19.75;14.75;;;;;;;13.88;100;95509.83;;;;
2019/10/28 00:19:17;;;;;;;19.75;14.75;;;;;;;13.88;100;95509.83;;;;
2019/10/28 00:20:19;;;;;;;19.75;14.75;;;;;;;13.88;100;95509.83;;;;
2019/10/28 00:21:20;;;;;;;19.75;14.75;;;;;;;13.88;100;95509.83;;;;
2019/10/28 00:22:21;;;;;;;19.75;14.75;;;;;;;13.88;100;95509.83;;;;
2019/10/28 00:23:22;;;;;;;19.75;14.75;;;;;;;13.88;100;95509.83;;;;
2019/10/28 00:24:23;;;;;;;19.75;14.75;;;;;;;13.88;100;95509.83;;;;
2019/10/28 00:25:24;;;;;;;19.75;14.75;;;;;;;13.88;100;95509.83;;;;
2019/10/28 00:26:25;;;;;;;19.75;14.75;;;;;;;13.88;100;95509.83;;;;
2019/10/28 00:27:27;;;;;;;15.55;12.85;;;;;;;13.56;100;95501.11;;;;
2019/10/28 00:28:28;;;;;;;15.55;12.85;;;;;;;13.56;100;95501.11;;;;
2019/10/28 00:29:29;;;;;;;15.55;12.85;;;;;;;13.56;100;95501.11;;;;
2019/10/28 00:30:30;;;;;;;18.9;14;;;;;;;13.56;100;95511.02;;;;
2019/10/28 00:31:31;;;;;;;18.9;14;;;;;;;13.56;100;95511.02;;;;
2019/10/28 00:32:32;;;;;;;18.9;14;;;;;;;13.56;100;95511.02;;;;
2019/10/28 00:33:34;;;;;;;18.9;14;;;;;;;13.56;100;95511.02;;;;
2019/10/28 00:34:35;;;;;;;18.9;14;;;;;;;13.56;100;95511.02;;;;
2019/10/28 00:35:36;;;;;;;18.9;14;;;;;;;13.56;100;95511.02;;;;
2019/10/28 00:36:37;;;;;;;18.9;14;;;;;;;13.56;100;95511.02;;;;
2019/10/28 00:37:38;;;;;;;18.9;14;;;;;;;13.56;100;95511.02;;;;
2019/10/28 00:38:39;;;;;;;18.9;14;;;;;;;13.56;100;95511.02;;;;
2019/10/28 00:39:40;;;;;;;18.9;14;;;;;;;13.56;100;95511.02;;;;
2019/10/28 00:40:42;;;;;;;17.5;13.75;;;;;;;13.41;100;95507.53;;;;
2019/10/28 00:41:43;;;;;;;17.5;13.75;;;;;;;13.41;100;95507.53;;;;
2019/10/28 00:42:44;;;;;;;17.5;13.75;;;;;;;13.41;100;95507.53;;;;
2019/10/28 00:43:45;;;;;;;18.3;14.7;;;;;;;13.44;100;95502.55;;;;
2019/10/28 00:44:46;;;;;;;18.3;14.7;;;;;;;13.44;100;95502.55;;;;
2019/10/28 00:45:47;;;;;;;18.3;14.7;;;;;;;13.44;100;95502.55;;;;
2019/10/28 00:46:49;;;;;;;18.3;14.7;;;;;;;13.44;100;95502.55;;;;
2019/10/28 00:47:50;;;;;;;18.3;14.7;;;;;;;13.44;100;95502.55;;;;
2019/10/28 00:48:51;;;;;;;18.3;14.7;;;;;;;13.44;100;95502.55;;;;
2019/10/28 00:49:52;;;;;;;18.3;14.7;;;;;;;13.44;100;95502.55;;;;
2019/10/28 00:50:53;;;;;;;18.3;14.7;;;;;;;13.44;100;95502.55;;;;
2019/10/28 00:51:54;;;;;;;18.3;14.7;;;;;;;13.44;100;95502.55;;;;
2019/10/28 00:52:55;;;;;;;18.3;14.7;;;;;;;13.44;100;95502.55;;;;
2019/10/28 00:53:56;;;;;;;18.9;14.5;;;;;;;13.27;100;95499.45;;;;
2019/10/28 00:54:58;;;;;;;18.9;14.5;;;;;;;13.27;100;95499.45;;;;
2019/10/28 00:55:59;;;;;;;18.9;14.5;;;;;;;13.27;100;95499.45;;;;
2019/10/28 00:57:00;;;;;;;20.4;15.2;;;;;;;13.3;100;95497.71;;;;
2019/10/28 00:58:01;;;;;;;20.4;15.2;;;;;;;13.3;100;95497.71;;;;
2019/10/28 00:59:02;;;;;;;20.4;15.2;;;;;;;13.3;100;95497.71;;;;
2019/10/28 01:00:03;;;;;;;20.4;15.2;;;;;;;13.3;100;95497.71;;;;
2019/10/28 01:01:06;;;;;;;20.4;15.2;;;;;;;13.3;100;95497.71;;;;
2019/10/28 01:02:07;;;;;;;20.4;15.2;;;;;;;13.3;100;95497.71;;;;
2019/10/28 01:03:08;;;;;;;20.4;15.2;;;;;;;13.3;100;95497.71;;;;
2019/10/28 01:04:10;;;;;;;20.4;15.2;;;;;;;13.3;100;95497.71;;;;
2019/10/28 01:05:11;;;;;;;20.4;15.2;;;;;;;13.3;100;95497.71;;;;
2019/10/28 01:06:12;;;;;;;20.4;15.2;;;;;;;13.3;100;95497.71;;;;
2019/10/28 01:07:13;;;;;;;21.8;15.75;;;;;;;13.18;100;95505.11;;;;
2019/10/28 01:08:14;;;;;;;21.8;15.75;;;;;;;13.18;100;95505.11;;;;
2019/10/28 01:09:15;;;;;;;21.8;15.75;;;;;;;13.18;100;95505.11;;;;
2019/10/28 01:10:17;;;;;;;25;16.05;;;;;;;13.2;100;95496.09;;;;
2019/10/28 01:11:18;;;;;;;25;16.05;;;;;;;13.2;100;95496.09;;;;
2019/10/28 01:12:19;;;;;;;25;16.05;;;;;;;13.2;100;95496.09;;;;
2019/10/28 01:13:20;;;;;;;25;16.05;;;;;;;13.2;100;95496.09;;;;
2019/10/28 01:14:21;;;;;;;25;16.05;;;;;;;13.2;100;95496.09;;;;
2019/10/28 01:15:23;;;;;;;25;16.05;;;;;;;13.2;100;95496.09;;;;
2019/10/28 01:16:35;;;;;;;25;16.05;;;;;;;13.2;100;95496.09;;;;
2019/10/28 01:17:37;;;;;;;25;16.05;;;;;;;13.2;100;95496.09;;;;
2019/10/28 01:18:38;;;;;;;25;16.05;;;;;;;13.2;100;95496.09;;;;
2019/10/28 01:19:39;;;;;;;25;16.05;;;;;;;13.2;100;95496.09;;;;
2019/10/28 01:20:40;;;;;;;21.1;16.75;;;;;;;13.09;100;95498.86;;;;
2019/10/28 01:21:42;;;;;;;21.1;16.75;;;;;;;13.09;100;95498.86;;;;
2019/10/28 01:22:43;;;;;;;26.55;18.6;;;;;;;13.11;100;95500.66;;;;
2019/10/28 01:23:44;;;;;;;26.55;18.6;;;;;;;13.11;100;95500.66;;;;
2019/10/28 01:24:45;;;;;;;26.55;18.6;;;;;;;13.11;100;95500.66;;;;
2019/10/28 01:25:46;;;;;;;26.55;18.6;;;;;;;13.11;100;95500.66;;;;
2019/10/28 01:26:48;;;;;;;26.55;18.6;;;;;;;13.11;100;95500.66;;;;
2019/10/28 01:27:49;;;;;;;26.55;18.6;;;;;;;13.11;100;95500.66;;;;
2019/10/28 01:28:50;;;;;;;26.55;18.6;;;;;;;13.11;100;95500.66;;;;
2019/10/28 01:29:51;;;;;;;26.55;18.6;;;;;;;13.11;100;95500.66;;;;
2019/10/28 01:30:52;;;;;;;26.55;18.6;;;;;;;13.11;100;95500.66;;;;
2019/10/28 01:31:55;;;;;;;26.55;18.6;;;;;;;13.11;100;95500.66;;;;
2019/10/28 01:32:57;;;;;;;26.55;18.6;;;;;;;13.11;100;95500.66;;;;
2019/10/28 01:33:58;;;;;;;23.7;17.25;;;;;;;13.03;100;95498.49;;;;
2019/10/28 01:34:59;;;;;;;23.7;17.25;;;;;;;13.03;100;95498.49;;;;
2019/10/28 01:36:00;;;;;;;23.75;18;;;;;;;13.06;100;95498.02;;;;
2019/10/28 01:37:04;;;;;;;23.75;18;;;;;;;13.06;100;95498.02;;;;
2019/10/28 01:38:05;;;;;;;23.75;18;;;;;;;13.06;100;95498.02;;;;
2019/10/28 01:39:07;;;;;;;23.75;18;;;;;;;13.06;100;95498.02;;;;
2019/10/28 01:40:08;;;;;;;23.75;18;;;;;;;13.06;100;95498.02;;;;
2019/10/28 01:41:09;;;;;;;23.75;18;;;;;;;13.06;100;95498.02;;;;
2019/10/28 01:42:11;;;;;;;23.75;18;;;;;;;13.06;100;95498.02;;;;
2019/10/28 01:43:12;;;;;;;23.75;18;;;;;;;13.06;100;95498.02;;;;
2019/10/28 01:44:14;;;;;;;23.75;18;;;;;;;13.06;100;95498.02;;;;
2019/10/28 01:45:15;;;;;;;23.75;18;;;;;;;13.06;100;95498.02;;;;
2019/10/28 01:46:16;;;;;;;23.75;18;;;;;;;13.06;100;95498.02;;;;
2019/10/28 01:47:18;;;;;;;22.25;16.45;;;;;;;12.99;100;95496.35;;;;
2019/10/28 01:48:19;;;;;;;22.25;16.45;;;;;;;12.99;100;95496.35;;;;
2019/10/28 01:49:21;;;;;;;22.75;17.5;;;;;;;13.02;100;95497.24;;;;
2019/10/28 01:50:22;;;;;;;22.75;17.5;;;;;;;13.02;100;95497.24;;;;
2019/10/28 01:51:23;;;;;;;22.75;17.5;;;;;;;13.02;100;95497.24;;;;
2019/10/28 01:52:24;;;;;;;22.75;17.5;;;;;;;13.02;100;95497.24;;;;
2019/10/28 01:53:25;;;;;;;22.75;17.5;;;;;;;13.02;100;95497.24;;;;
2019/10/28 01:54:27;;;;;;;22.75;17.5;;;;;;;13.02;100;95497.24;;;;
2019/10/28 01:55:28;;;;;;;22.75;17.5;;;;;;;13.02;100;95497.24;;;;
2019/10/28 01:56:29;;;;;;;22.75;17.5;;;;;;;13.02;100;95497.24;;;;
2019/10/28 01:57:50;;;;;;;22.75;17.5;;;;;;;13.02;100;95497.24;;;;
2019/10/28 01:58:51;;;;;;;22.75;17.5;;;;;;;13.02;100;95497.24;;;;
2019/10/28 01:59:52;;;;;;;24.25;17.6;;;;;;;12.93;100;95480.16;;;;
2019/10/28 02:00:54;;;;;;;24.25;17.6;;;;;;;12.93;100;95480.16;;;;
2019/10/28 02:01:55;;;;;;;24.25;17.6;;;;;;;12.93;100;95480.16;;;;
2019/10/28 02:05:33;;;;;;;30.2;18.15;;;;;;;12.97;100;95481.28;;;;
2019/10/28 02:12:06;;;;;;;30.2;18.15;;;;;;;12.97;100;95481.28;;;;
2019/10/28 02:13:08;;;;;;;27;17.25;;;;;;;12.88;100;95475.59;;;;
2019/10/28 02:20:44;;;;;;;27.4;19.25;;;;;;;12.91;100;95471.97;;;;
2019/10/28 02:22:38;;;;;;;27.4;19.25;;;;;;;12.91;100;95471.97;;;;
2019/10/28 02:28:41;;;;;;;25.55;17.5;;;;;;;12.8;100;95464.2;;;;
2019/10/28 02:33:00;;;;;;;26.95;19.45;;;;;;;12.83;100;95464.64;;;;
2019/10/28 02:38:37;;;;;;;26.95;19.45;;;;;;;12.83;100;95464.64;;;;
2019/10/28 02:39:39;;;;;;;24.3;17.95;;;;;;;12.74;100;95460.17;;;;
2019/10/28 02:40:40;;;;;;;24.3;17.95;;;;;;;12.74;100;95460.17;;;;
2019/10/28 02:41:41;;;;;;;24.3;17.95;;;;;;;12.74;100;95460.17;;;;
2019/10/28 02:42:42;;;;;;;25.55;18.55;;;;;;;12.77;100;95459.67;;;;
2019/10/28 02:43:43;;;;;;;25.55;18.55;;;;;;;12.77;100;95459.67;;;;
2019/10/28 02:44:45;;;;;;;25.55;18.55;;;;;;;12.77;100;95459.67;;;;
2019/10/28 02:45:46;;;;;;;25.55;18.55;;;;;;;12.77;100;95459.67;;;;
2019/10/28 02:46:47;;;;;;;25.55;18.55;;;;;;;12.77;100;95459.67;;;;
2019/10/28 02:47:48;;;;;;;25.55;18.55;;;;;;;12.77;100;95459.67;;;;
2019/10/28 02:48:50;;;;;;;25.55;18.55;;;;;;;12.77;100;95459.67;;;;
2019/10/28 02:49:51;;;;;;;25.55;18.55;;;;;;;12.77;100;95459.67;;;;
2019/10/28 02:50:52;;;;;;;25.55;18.55;;;;;;;12.77;100;95459.67;;;;
2019/10/28 02:51:53;;;;;;;25.55;18.55;;;;;;;12.77;100;95459.67;;;;
2019/10/28 02:52:54;;;;;;;28.85;19;;;;;;;12.69;100;95455.61;;;;
2019/10/28 02:53:56;;;;;;;28.85;19;;;;;;;12.69;100;95455.61;;;;
2019/10/28 02:54:57;;;;;;;28.85;19;;;;;;;12.69;100;95455.61;;;;
2019/10/28 02:55:58;;;;;;;26.2;18.85;;;;;;;12.74;100;95458.92;;;;
2019/10/28 02:56:59;;;;;;;26.2;18.85;;;;;;;12.74;100;95458.92;;;;
2019/10/28 02:58:00;;;;;;;26.2;18.85;;;;;;;12.74;100;95458.92;;;;
2019/10/28 02:59:02;;;;;;;26.2;18.85;;;;;;;12.74;100;95458.92;;;;
2019/10/28 03:00:03;;;;;;;26.2;18.85;;;;;;;12.74;100;95458.92;;;;
2019/10/28 03:01:05;;;;;;;26.2;18.85;;;;;;;12.74;100;95458.92;;;;
2019/10/28 03:02:06;;;;;;;26.2;18.85;;;;;;;12.74;100;95458.92;;;;
2019/10/28 03:03:08;;;;;;;26.2;18.85;;;;;;;12.74;100;95458.92;;;;
2019/10/28 03:04:09;;;;;;;26.2;18.85;;;;;;;12.74;100;95458.92;;;;
2019/10/28 03:05:10;;;;;;;26.2;18.85;;;;;;;12.74;100;95458.92;;;;
2019/10/28 03:06:15;;;;;;;27;18.1;;;;;;;12.65;100;95453.51;;;;
2019/10/28 03:07:17;;;;;;;27;18.1;;;;;;;12.65;100;95453.51;;;;
2019/10/28 03:08:18;;;;;;;27;18.1;;;;;;;12.65;100;95453.51;;;;
2019/10/28 03:09:19;;;;;;;26.05;19;;;;;;;12.7;100;95454.14;;;;
2019/10/28 03:10:21;;;;;;;26.05;19;;;;;;;12.7;100;95454.14;;;;
2019/10/28 03:11:22;;;;;;;26.05;19;;;;;;;12.7;100;95454.14;;;;
2019/10/28 03:12:24;;;;;;;26.05;19;;;;;;;12.7;100;95454.14;;;;
2019/10/28 03:13:25;;;;;;;26.05;19;;;;;;;12.7;100;95454.14;;;;
2019/10/28 03:14:26;;;;;;;26.05;19;;;;;;;12.7;100;95454.14;;;;
2019/10/28 03:15:28;;;;;;;26.05;19;;;;;;;12.7;100;95454.14;;;;
2019/10/28 03:16:29;;;;;;;26.05;19;;;;;;;12.7;100;95454.14;;;;
2019/10/28 03:17:30;;;;;;;26.05;19;;;;;;;12.7;100;95454.14;;;;
2019/10/28 03:18:32;;;;;;;26.05;19;;;;;;;12.7;100;95454.14;;;;
2019/10/28 03:19:33;;;;;;;24.55;16.7;;;;;;;12.68;100;95458.56;;;;
2019/10/28 03:20:34;;;;;;;24.55;16.7;;;;;;;12.68;100;95458.56;;;;
2019/10/28 03:21:36;;;;;;;24.55;16.7;;;;;;;12.68;100;95458.56;;;;
2019/10/28 03:22:37;;;;;;;27.05;18.25;;;;;;;12.71;100;95453.89;;;;
2019/10/28 03:23:38;;;;;;;27.05;18.25;;;;;;;12.71;100;95453.89;;;;
2019/10/28 03:24:39;;;;;;;27.05;18.25;;;;;;;12.71;100;95453.89;;;;
2019/10/28 03:25:59;;;;;;;27.05;18.25;;;;;;;12.71;100;95453.89;;;;
2019/10/28 03:27:01;;;;;;;27.05;18.25;;;;;;;12.71;100;95453.89;;;;
2019/10/28 03:28:07;;;;;;;27.05;18.25;;;;;;;12.71;100;95453.89;;;;
2019/10/28 03:29:08;;;;;;;27.05;18.25;;;;;;;12.71;100;95453.89;;;;
2019/10/28 03:30:09;;;;;;;27.05;18.25;;;;;;;12.71;100;95453.89;;;;
2019/10/28 03:31:14;;;;;;;27.05;18.25;;;;;;;12.71;100;95453.89;;;;
2019/10/28 03:32:15;;;;;;;27.05;18.25;;;;;;;12.71;100;95453.89;;;;
2019/10/28 03:33:17;;;;;;;26.7;16.8;;;;;;;12.64;100;95455.11;;;;
2019/10/28 03:34:18;;;;;;;26.7;16.8;;;;;;;12.64;100;95455.11;;;;
2019/10/28 03:35:19;;;;;;;26.05;18.45;;;;;;;12.67;100;95452.84;;;;
2019/10/28 03:36:20;;;;;;;26.05;18.45;;;;;;;12.67;100;95452.84;;;;
2019/10/28 03:37:21;;;;;;;26.05;18.45;;;;;;;12.67;100;95452.84;;;;
2019/10/28 03:38:22;;;;;;;26.05;18.45;;;;;;;12.67;100;95452.84;;;;
2019/10/28 03:39:23;;;;;;;26.05;18.45;;;;;;;12.67;100;95452.84;;;;
2019/10/28 03:40:25;;;;;;;26.05;18.45;;;;;;;12.67;100;95452.84;;;;
2019/10/28 03:41:26;;;;;;;26.05;18.45;;;;;;;12.67;100;95452.84;;;;
2019/10/28 03:42:27;;;;;;;26.05;18.45;;;;;;;12.67;100;95452.84;;;;
2019/10/28 03:43:29;;;;;;;26.05;18.45;;;;;;;12.67;100;95452.84;;;;
2019/10/28 03:44:30;;;;;;;26.05;18.45;;;;;;;12.67;100;95452.84;;;;
2019/10/28 03:45:32;;;;;;;26.05;18.45;;;;;;;12.67;100;95452.84;;;;
2019/10/28 03:46:33;;;;;;;27.2;17.05;;;;;;;12.58;100;95446.48;;;;
2019/10/28 03:47:42;;;;;;;27.2;17.05;;;;;;;12.58;100;95446.48;;;;
2019/10/28 03:48:58;;;;;;;27.2;17.05;;;;;;;12.58;100;95446.48;;;;
2019/10/28 03:50:05;;;;;;;27.2;17.05;;;;;;;12.58;100;95446.48;;;;
2019/10/28 03:51:06;;;;;;;27.2;17.05;;;;;;;12.58;100;95446.48;;;;
2019/10/28 03:52:07;;;;;;;27.2;17.05;;;;;;;12.58;100;95446.48;;;;
2019/10/28 03:53:09;;;;;;;27.2;17.05;;;;;;;12.58;100;95446.48;;;;
2019/10/28 03:54:12;;;;;;;27.2;17.05;;;;;;;12.58;100;95446.48;;;;
2019/10/28 03:55:14;;;;;;;27.2;17.05;;;;;;;12.58;100;95446.48;;;;
2019/10/28 03:56:54;;;;;;;23.55;16.95;;;;;;;12.57;100;95454.44;;;;
2019/10/28 03:57:57;;;;;;;23.55;16.95;;;;;;;12.57;100;95454.44;;;;
2019/10/28 03:58:58;;;;;;;23.55;16.95;;;;;;;12.57;100;95454.44;;;;
2019/10/28 03:59:59;;;;;;;23.55;16.95;;;;;;;12.57;100;95454.44;;;;
2019/10/28 04:01:06;;;;;;;23.55;16.95;;;;;;;12.57;100;95454.44;;;;
2019/10/28 04:02:12;;;;;;;23.55;16.95;;;;;;;12.57;100;95454.44;;;;
2019/10/28 04:03:16;;;;;;;23.55;16.95;;;;;;;12.57;100;95454.44;;;;
2019/10/28 04:04:17;;;;;;;23.55;16.95;;;;;;;12.57;100;95454.44;;;;
2019/10/28 04:05:18;;;;;;;23.55;16.95;;;;;;;12.57;100;95454.44;;;;
2019/10/28 04:06:20;;;;;;;23.55;16.95;;;;;;;12.57;100;95454.44;;;;
2019/10/28 04:07:21;;;;;;;8.2;6.299999;;;;;;;12.47;100;95476.33;;;;
2019/10/28 04:08:22;;;;;;;8.2;6.299999;;;;;;;12.47;100;95476.33;;;;
2019/10/28 04:09:23;;;;;;;8.2;6.299999;;;;;;;12.47;100;95476.33;;;;
2019/10/28 04:10:25;;;;;;;8.2;6.299999;;;;;;;12.47;100;95476.33;;;;
2019/10/28 04:11:26;;;;;;;8.2;6.299999;;;;;;;12.47;100;95476.33;;;;
2019/10/28 04:12:27;;;;;;;8.2;6.299999;;;;;;;12.47;100;95476.33;;;;
2019/10/28 04:13:29;;;;;;;8.2;6.299999;;;;;;;12.47;100;95476.33;;;;
2019/10/28 04:14:30;;;;;;;8.2;6.299999;;;;;;;12.47;100;95476.33;;;;
2019/10/28 04:15:31;;;;;;;8.2;6.299999;;;;;;;12.47;100;95476.33;;;;
2019/10/28 04:16:32;;;;;;;8.2;6.299999;;;;;;;12.47;100;95476.33;;;;
2019/10/28 04:17:34;;;;;;;5.5;4.749999;;;;;;;11.98;100;95481.48;;;;
2019/10/28 04:18:35;;;;;;;5.5;4.749999;;;;;;;11.98;100;95481.48;;;;
2019/10/28 04:19:36;;;;;;;5.5;4.749999;;;;;;;11.98;100;95481.48;;;;
2019/10/28 04:20:38;;;;;;;5.5;4.749999;;;;;;;11.98;100;95481.48;;;;
2019/10/28 04:21:39;;;;;;;5.5;4.749999;;;;;;;11.98;100;95481.48;;;;
2019/10/28 04:22:40;;;;;;;5.5;4.749999;;;;;;;11.98;100;95481.48;;;;
2019/10/28 04:23:41;;;;;;;5.5;4.749999;;;;;;;11.98;100;95481.48;;;;
2019/10/28 04:24:42;;;;;;;5.5;4.749999;;;;;;;11.98;100;95481.48;;;;
2019/10/28 04:25:43;;;;;;;5.5;4.749999;;;;;;;11.98;100;95481.48;;;;
2019/10/28 04:26:45;;;;;;;5.5;4.749999;;;;;;;11.98;100;95481.48;;;;
2019/10/28 04:27:46;;;;;;;5.5;4.749999;;;;;;;11.98;100;95481.48;;;;
2019/10/28 04:28:47;;;;;;;3.6;3.3;;;;;;;11.39;100;95488.4;;;;
2019/10/28 04:29:48;;;;;;;3.6;3.3;;;;;;;11.39;100;95488.4;;;;
2019/10/28 04:30:49;;;;;;;3.6;3.05;;;;;;;11.3;100;95485.76;;;;
2019/10/28 04:31:50;;;;;;;3.6;3.05;;;;;;;11.3;100;95485.76;;;;
2019/10/28 04:32:51;;;;;;;3.6;3.05;;;;;;;11.3;100;95485.76;;;;
2019/10/28 04:33:53;;;;;;;3.6;3.05;;;;;;;11.3;100;95485.76;;;;
2019/10/28 04:34:54;;;;;;;3.6;3.05;;;;;;;11.3;100;95485.76;;;;
2019/10/28 04:35:55;;;;;;;3.6;3.05;;;;;;;11.3;100;95485.76;;;;
2019/10/28 04:36:57;;;;;;;3.6;3.05;;;;;;;11.3;100;95485.76;;;;
2019/10/28 04:37:58;;;;;;;3.6;3.05;;;;;;;11.3;100;95485.76;;;;
2019/10/28 04:38:59;;;;;;;3.6;3.05;;;;;;;11.3;100;95485.76;;;;
2019/10/28 04:40:01;;;;;;;3.6;3.05;;;;;;;11.3;100;95485.76;;;;
2019/10/28 04:41:03;;;;;;;3.6;3.05;;;;;;;11.3;100;95485.76;;;;
2019/10/28 04:42:04;;;;;;;4.349999;3.95;;;;;;;10.81;100;95493.34;;;;
2019/10/28 04:43:06;;;;;;;4.349999;3.95;;;;;;;10.81;100;95493.34;;;;
2019/10/28 04:47:05;;;;;;;4.349999;3.95;;;;;;;10.81;100;95493.34;;;;
2019/10/28 04:48:06;;;;;;;4.349999;3.95;;;;;;;10.81;100;95493.34;;;;
2019/10/28 04:49:07;;;;;;;4.349999;3.95;;;;;;;10.81;100;95493.34;;;;
2019/10/28 04:50:08;;;;;;;4.349999;3.95;;;;;;;10.81;100;95493.34;;;;
2019/10/28 04:51:09;;;;;;;4.349999;3.95;;;;;;;10.81;100;95493.34;;;;
2019/10/28 04:52:11;;;;;;;5.999999;5.050001;;;;;;;10.47;100;95488.67;;;;
2019/10/28 04:53:12;;;;;;;5.999999;5.050001;;;;;;;10.47;100;95488.67;;;;
2019/10/28 04:54:13;;;;;;;5.999999;5.050001;;;;;;;10.47;100;95488.67;;;;
2019/10/28 04:55:15;;;;;;;5.999999;5.050001;;;;;;;10.47;100;95488.67;;;;
2019/10/28 04:56:16;;;;;;;5.999999;5.050001;;;;;;;10.47;100;95488.67;;;;
2019/10/28 04:57:48;;;;;;;5.999999;5.050001;;;;;;;10.47;100;95488.67;;;;
2019/10/28 04:58:50;;;;;;;5.999999;5.050001;;;;;;;10.47;100;95488.67;;;;
2019/10/28 04:59:51;;;;;;;5.999999;5.050001;;;;;;;10.47;100;95488.67;;;;
2019/10/28 05:00:52;;;;;;;5.999999;5.050001;;;;;;;10.47;100;95488.67;;;;
2019/10/28 05:01:53;;;;;;;5.999999;5.050001;;;;;;;10.47;100;95488.67;;;;
2019/10/28 05:02:54;;;;;;;5.05;4.4;;;;;;;10.2;100;95510.89;;;;
2019/10/28 05:03:56;;;;;;;5.05;4.4;;;;;;;10.2;100;95510.89;;;;
2019/10/28 05:04:57;;;;;;;5.05;4.4;;;;;;;10.2;100;95510.89;;;;
2019/10/28 05:05:58;;;;;;;5.05;4.4;;;;;;;10.2;100;95510.89;;;;
2019/10/28 05:06:59;;;;;;;5.05;4.4;;;;;;;10.2;100;95510.89;;;;
2019/10/28 05:08:00;;;;;;;5.05;4.4;;;;;;;10.2;100;95510.89;;;;
2019/10/28 05:09:01;;;;;;;5.05;4.4;;;;;;;10.2;100;95510.89;;;;
2019/10/28 05:10:03;;;;;;;5.05;4.4;;;;;;;10.2;100;95510.89;;;;
2019/10/28 05:11:05;;;;;;;5.05;4.4;;;;;;;10.2;100;95510.89;;;;
2019/10/28 05:12:06;;;;;;;5.05;4.4;;;;;;;10.2;100;95510.89;;;;
2019/10/28 05:13:07;;;;;;;9.15;8.25;;;;;;;10.04;100;95514.56;;;;
2019/10/28 05:14:09;;;;;;;9.15;8.25;;;;;;;10.04;100;95514.56;;;;
2019/10/28 05:15:11;;;;;;;9.15;8.25;;;;;;;10.04;100;95514.56;;;;
2019/10/28 05:16:13;;;;;;;9.15;8.25;;;;;;;10.04;100;95514.56;;;;
2019/10/28 05:17:14;;;;;;;9.15;8.25;;;;;;;10.04;100;95514.56;;;;
2019/10/28 05:18:15;;;;;;;9.15;8.25;;;;;;;10.04;100;95514.56;;;;
2019/10/28 05:19:16;;;;;;;9.15;8.25;;;;;;;10.04;100;95514.56;;;;
2019/10/28 05:20:18;;;;;;;9.15;8.25;;;;;;;10.04;100;95514.56;;;;
2019/10/28 05:21:19;;;;;;;9.15;8.25;;;;;;;10.04;100;95514.56;;;;
2019/10/28 05:22:20;;;;;;;9.15;8.25;;;;;;;10.04;100;95514.56;;;;
2019/10/28 05:23:21;;;;;;;9.15;8.25;;;;;;;10.04;100;95514.56;;;;
2019/10/28 05:24:22;;;;;;;8.799998;7.900001;;;;;;;9.87;100;95513.96;;;;
2019/10/28 05:25:23;;;;;;;8.799998;7.900001;;;;;;;9.87;100;95513.96;;;;
2019/10/28 05:26:25;;;;;;;8.799998;7.900001;;;;;;;9.87;100;95513.96;;;;
2019/10/28 05:27:26;;;;;;;8.799998;7.900001;;;;;;;9.87;100;95513.96;;;;
2019/10/28 05:28:27;;;;;;;8.799998;7.900001;;;;;;;9.87;100;95513.96;;;;
2019/10/28 05:29:28;;;;;;;8.799998;7.900001;;;;;;;9.87;100;95513.96;;;;
2019/10/28 05:30:29;;;;;;;8.799998;7.900001;;;;;;;9.87;100;95513.96;;;;
2019/10/28 05:31:31;;;;;;;8.799998;7.900001;;;;;;;9.87;100;95513.96;;;;
2019/10/28 05:32:32;;;;;;;8.799998;7.900001;;;;;;;9.87;100;95513.96;;;;
2019/10/28 05:33:33;;;;;;;8.799998;7.900001;;;;;;;9.87;100;95513.96;;;;
2019/10/28 05:34:35;;;;;;;8.35;7.25;;;;;;;9.72;100;95526.98;;;;
2019/10/28 05:35:36;;;;;;;8.35;7.25;;;;;;;9.72;100;95526.98;;;;
2019/10/28 05:36:37;;;;;;;8.35;7.25;;;;;;;9.72;100;95526.98;;;;
2019/10/28 05:37:38;;;;;;;8.35;7.25;;;;;;;9.72;100;95526.98;;;;
2019/10/28 05:38:39;;;;;;;8.35;7.25;;;;;;;9.72;100;95526.98;;;;
2019/10/28 05:39:41;;;;;;;8.35;7.25;;;;;;;9.72;100;95526.98;;;;
2019/10/28 05:40:42;;;;;;;8.35;7.25;;;;;;;9.72;100;95526.98;;;;
2019/10/28 05:41:43;;;;;;;8.35;7.25;;;;;;;9.72;100;95526.98;;;;
2019/10/28 05:42:44;;;;;;;8.35;7.25;;;;;;;9.72;100;95526.98;;;;
2019/10/28 05:43:45;;;;;;;8.35;7.25;;;;;;;9.72;100;95526.98;;;;
2019/10/28 05:44:46;;;;;;;11.45;8.799999;;;;;;;9.53;100;95538.4;;;;
2019/10/28 05:45:47;;;;;;;11.45;8.799999;;;;;;;9.53;100;95538.4;;;;
2019/10/28 05:46:49;;;;;;;11.45;8.799999;;;;;;;9.53;100;95538.4;;;;
2019/10/28 05:47:50;;;;;;;11.45;8.799999;;;;;;;9.53;100;95538.4;;;;
2019/10/28 05:48:51;;;;;;;11.45;8.799999;;;;;;;9.53;100;95538.4;;;;
2019/10/28 05:49:52;;;;;;;11.45;8.799999;;;;;;;9.53;100;95538.4;;;;
2019/10/28 05:50:53;;;;;;;11.45;8.799999;;;;;;;9.53;100;95538.4;;;;
2019/10/28 05:51:54;;;;;;;11.45;8.799999;;;;;;;9.53;100;95538.4;;;;
2019/10/28 05:52:55;;;;;;;11.45;8.799999;;;;;;;9.53;100;95538.4;;;;
2019/10/28 05:53:57;;;;;;;11.45;8.799999;;;;;;;9.53;100;95538.4;;;;
2019/10/28 05:54:58;;;;;;;11.45;8.799999;;;;;;;9.53;100;95538.4;;;;
2019/10/28 05:55:59;;;;;;;11.05;9.849999;;;;;;;9.43;100;95533.09;;;;
2019/10/28 05:57:00;;;;;;;11.05;9.849999;;;;;;;9.43;100;95533.09;;;;
2019/10/28 05:58:02;;;;;;;11.05;9.849999;;;;;;;9.43;100;95533.09;;;;
2019/10/28 05:59:03;;;;;;;11.05;9.849999;;;;;;;9.43;100;95533.09;;;;
2019/10/28 06:00:04;;;;;;;11.05;9.849999;;;;;;;9.43;100;95533.09;;;;
2019/10/28 06:01:06;;;;;;;11.05;9.849999;;;;;;;9.43;100;95533.09;;;;
2019/10/28 06:02:07;;;;;;;11.05;9.849999;;;;;;;9.43;100;95533.09;;;;
2019/10/28 06:03:08;;;;;;;11.05;9.849999;;;;;;;9.43;100;95533.09;;;;
2019/10/28 06:04:09;;;;;;;11.05;9.849999;;;;;;;9.43;100;95533.09;;;;
2019/10/28 06:05:10;;;;;;;11.05;9.849999;;;;;;;9.43;100;95533.09;;;;
2019/10/28 06:06:12;;;;;;;11.85;10.25;;;;;;;9.3;100;95543.48;;;;
2019/10/28 06:07:13;;;;;;;11.85;10.25;;;;;;;9.3;100;95543.48;;;;
2019/10/28 06:08:14;;;;;;;11.85;10.25;;;;;;;9.3;100;95543.48;;;;
2019/10/28 06:09:15;;;;;;;11.85;10.25;;;;;;;9.3;100;95543.48;;;;
2019/10/28 06:10:17;;;;;;;11.85;10.25;;;;;;;9.3;100;95543.48;;;;
2019/10/28 06:11:18;;;;;;;11.85;10.25;;;;;;;9.3;100;95543.48;;;;
2019/10/28 06:12:19;;;;;;;11.85;10.25;;;;;;;9.3;100;95543.48;;;;
2019/10/28 06:13:20;;;;;;;11.85;10.25;;;;;;;9.3;100;95543.48;;;;
2019/10/28 06:14:21;;;;;;;11.85;10.25;;;;;;;9.3;100;95543.48;;;;
2019/10/28 06:15:22;;;;;;;11.85;10.25;;;;;;;9.3;100;95543.48;;;;
2019/10/28 06:16:23;;;;;;;11.85;10.25;;;;;;;9.3;100;95543.48;;;;
2019/10/28 06:17:24;;;;;;;13.95;11.2;;;;;;;9.27;100;95555.64;;;;
2019/10/28 06:18:26;;;;;;;13.95;11.2;;;;;;;9.27;100;95555.64;;;;
2019/10/28 06:19:27;;;;;;;13.95;11.2;;;;;;;9.27;100;95555.64;;;;
2019/10/28 06:20:28;;;;;;;13.95;11.2;;;;;;;9.27;100;95555.64;;;;
2019/10/28 06:21:29;;;;;;;13.95;11.2;;;;;;;9.27;100;95555.64;;;;
2019/10/28 06:22:30;;;;;;;13.95;11.2;;;;;;;9.27;100;95555.64;;;;
2019/10/28 06:23:31;;;;;;;13.95;11.2;;;;;;;9.27;100;95555.64;;;;
2019/10/28 06:24:32;;;;;;;13.95;11.2;;;;;;;9.27;100;95555.64;;;;
2019/10/28 06:25:33;;;;;;;13.95;11.2;;;;;;;9.27;100;95555.64;;;;
2019/10/28 06:26:34;;;;;;;13.95;11.2;;;;;;;9.27;100;95555.64;;;;
2019/10/28 06:27:35;;;;;;;14;11.1;;;;;;;9.17;100;95562.06;;;;
2019/10/28 06:28:37;;;;;;;14;11.1;;;;;;;9.17;100;95562.06;;;;
2019/10/28 06:29:38;;;;;;;14;11.1;;;;;;;9.17;100;95562.06;;;;
2019/10/28 06:30:39;;;;;;;14;11.1;;;;;;;9.17;100;95562.06;;;;
2019/10/28 06:31:40;;;;;;;14;11.1;;;;;;;9.17;100;95562.06;;;;
2019/10/28 06:32:41;;;;;;;14;11.1;;;;;;;9.17;100;95562.06;;;;
2019/10/28 06:33:42;;;;;;;14;11.1;;;;;;;9.17;100;95562.06;;;;
2019/10/28 06:34:43;;;;;;;14;11.1;;;;;;;9.17;100;95562.06;;;;
2019/10/28 06:35:44;;;;;;;14;11.1;;;;;;;9.17;100;95562.06;;;;
2019/10/28 06:36:46;;;;;;;14;11.1;;;;;;;9.17;100;95562.06;;;;
2019/10/28 06:37:47;;;;;;;14;11.1;;;;;;;9.17;100;95562.06;;;;
2019/10/28 06:39:25;;;;;;;13.8;10.9;;;;;;;9.15;100;95569.02;;;;
2019/10/28 06:40:33;;;;;;;13.8;10.9;;;;;;;9.15;100;95569.02;;;;
2019/10/28 06:41:35;;;;;;;13.8;10.9;;;;;;;9.15;100;95569.02;;;;
2019/10/28 06:42:36;;;;;;;13.8;10.9;;;;;;;9.15;100;95569.02;;;;